createdAt,value
2022-12-23T00:01:13.686Z,100087.75
2022-12-23T00:03:40.170Z,100082.47
2022-12-23T00:06:15.516Z,100079.88
2022-12-23T00:08:43.161Z,100075.50
2022-12-23T00:11:13.601Z,100076.47
2022-12-23T00:13:58.875Z,100071.31
2022-12-23T00:16:25.395Z,100082.59
2022-12-23T00:18:53.034Z,100081.72
2022-12-23T00:21:19.600Z,100074.75
2022-12-23T00:23:48.508Z,100081.56
2022-12-23T00:26:20.889Z,100066.72
2022-12-23T00:28:47.452Z,100077.09
2022-12-23T00:31:14.476Z,100079.69
2022-12-23T00:33:46.427Z,100081.50
2022-12-23T00:36:30.160Z,100079.81
2022-12-23T00:39:17.333Z,100079.03
2022-12-23T00:42:03.000Z,100079.03
2022-12-23T00:44:29.421Z,100085.94
2022-12-23T00:46:55.956Z,100084.13
2022-12-23T00:49:41.007Z,100082.31
2022-12-23T00:52:12.746Z,100084.81
2022-12-23T00:54:39.280Z,100083.91
2022-12-23T00:57:05.848Z,100095.16
2022-12-23T00:59:33.292Z,100089.94
2022-12-23T01:02:18.627Z,100087.28
2022-12-23T01:05:03.808Z,100088.13
2022-12-23T01:07:30.293Z,100091.69
2022-12-23T01:09:56.657Z,100085.59
2022-12-23T01:12:23.045Z,100083.00
2022-12-23T01:14:49.560Z,100087.34
2022-12-23T01:17:16.081Z,100080.38
2022-12-23T01:19:42.611Z,100078.66
2022-12-23T01:22:09.142Z,100076.06
2022-12-23T01:24:35.719Z,100071.69
2022-12-23T01:27:02.072Z,100080.31
2022-12-23T01:29:29.002Z,100079.47
2022-12-23T01:31:55.594Z,100079.50
2022-12-23T01:34:22.394Z,100077.84
2022-12-23T01:36:48.821Z,100076.94
2022-12-23T01:39:15.306Z,100078.66
2022-12-23T01:42:00.326Z,100077.88
2022-12-23T01:45:00.664Z,100078.91
2022-12-23T01:47:31.445Z,100075.44
2022-12-23T01:50:03.970Z,100080.66
2022-12-23T01:52:34.507Z,100079.75
2022-12-23T01:55:02.162Z,100077.94
2022-12-23T01:57:29.407Z,100085.81
2022-12-23T02:00:14.159Z,100080.66
2022-12-23T02:03:02.646Z,100080.66
2022-12-23T02:05:29.553Z,100094.47
2022-12-23T02:08:15.263Z,100089.22
2022-12-23T02:11:11.389Z,100079.63
2022-12-23T02:14:12.671Z,100077.09
2022-12-23T02:16:50.444Z,100084.06
2022-12-23T02:19:34.919Z,100079.75
2022-12-23T02:22:35.342Z,100090.16
2022-12-23T02:25:23.245Z,100078.03
2022-12-23T02:28:04.207Z,100078.91
2022-12-23T02:30:48.416Z,100075.38
2022-12-23T02:33:39.009Z,100069.22
2022-12-23T02:36:18.145Z,100070.06
2022-12-23T02:39:06.765Z,100084.00
2022-12-23T02:41:43.161Z,100090.91
2022-12-23T02:44:29.862Z,100088.31
2022-12-23T02:47:05.623Z,100098.72
2022-12-23T02:49:40.028Z,100093.56
2022-12-23T02:52:13.413Z,100096.22
2022-12-23T02:54:48.587Z,100103.16
2022-12-23T02:57:18.621Z,100100.47
2022-12-23T02:59:49.003Z,100101.44
2022-12-23T03:02:15.593Z,100102.28
2022-12-23T03:04:42.534Z,100104.94
2022-12-23T03:07:23.855Z,100110.13
2022-12-23T03:10:24.564Z,100116.25
2022-12-23T03:13:08.084Z,100110.22
2022-12-23T03:15:47.330Z,100111.19
2022-12-23T03:18:36.740Z,100115.56
2022-12-23T03:21:16.596Z,100112.16
2022-12-23T03:23:49.116Z,100118.28
2022-12-23T03:26:27.079Z,100120.03
2022-12-23T03:29:02.905Z,100127.03
2022-12-23T03:31:31.531Z,100131.34
2022-12-23T03:34:03.536Z,100135.66
2022-12-23T03:36:47.323Z,100136.47
2022-12-23T03:39:18.975Z,100133.00
2022-12-23T03:41:52.479Z,100148.63
2022-12-23T03:44:26.333Z,100136.44
2022-12-23T03:47:01.410Z,100137.25
2022-12-23T03:49:33.804Z,100140.66
2022-12-23T03:52:05.778Z,100133.69
2022-12-23T03:54:39.673Z,100140.59
2022-12-23T03:57:07.341Z,100145.75
2022-12-23T03:59:38.547Z,100142.28
2022-12-23T04:02:32.633Z,100123.09
2022-12-23T04:05:21.831Z,100130.78
2022-12-23T04:08:06.983Z,100131.59
2022-12-23T04:10:34.582Z,100136.75
2022-12-23T04:13:01.553Z,100144.56
2022-12-23T04:15:28.327Z,100135.03
2022-12-23T04:17:56.105Z,100141.06
2022-12-23T04:20:22.982Z,100140.16
2022-12-23T04:22:49.737Z,100142.75
2022-12-23T04:25:17.502Z,100145.41
2022-12-23T04:27:44.339Z,100145.34
2022-12-23T04:30:13.853Z,100140.09
2022-12-23T04:32:41.603Z,100145.34
2022-12-23T04:35:09.404Z,100148.81
2022-12-23T04:37:36.027Z,100152.22
2022-12-23T04:40:02.574Z,100153.09
2022-12-23T04:42:28.978Z,100151.34
2022-12-23T04:48:48.622Z,100153.13
2022-12-23T04:51:15.175Z,100146.22
2022-12-23T04:53:41.545Z,100149.66
2022-12-23T04:56:08.139Z,100157.53
2022-12-23T04:58:34.589Z,100140.25
2022-12-23T05:01:05.975Z,100144.63
2022-12-23T05:03:32.610Z,100156.84
2022-12-23T05:05:59.135Z,100158.50
2022-12-23T05:08:25.764Z,100160.19
2022-12-23T05:10:52.476Z,100172.31
2022-12-23T05:13:18.891Z,100171.38
2022-12-23T05:15:46.806Z,100185.25
2022-12-23T05:18:13.192Z,100180.78
2022-12-23T05:20:39.593Z,100182.44
2022-12-23T05:23:06.091Z,100185.00
2022-12-23T05:25:34.108Z,100178.91
2022-12-23T05:28:00.571Z,100185.81
2022-12-23T05:30:27.015Z,100184.91
2022-12-23T05:32:54.839Z,100180.50
2022-12-23T05:35:22.733Z,100185.72
2022-12-23T05:37:49.203Z,100187.41
2022-12-23T05:40:21.525Z,100174.38
2022-12-23T05:42:50.339Z,100190.88
2022-12-23T05:45:16.869Z,100206.50
2022-12-23T05:47:43.305Z,100192.72
2022-12-23T05:50:09.900Z,100193.69
2022-12-23T05:52:36.347Z,100207.56
2022-12-23T05:55:03.107Z,100204.06
2022-12-23T05:57:30.270Z,100210.97
2022-12-23T05:59:56.637Z,100205.75
2022-12-23T06:02:23.365Z,100211.78
2022-12-23T06:04:50.179Z,100220.44
2022-12-23T06:07:16.787Z,100216.09
2022-12-23T06:09:43.367Z,100215.19
2022-12-23T06:12:09.746Z,100224.75
2022-12-23T06:14:36.238Z,100221.31
2022-12-23T06:17:02.728Z,100223.91
2022-12-23T06:19:29.179Z,100226.56
2022-12-23T06:21:55.567Z,100223.16
2022-12-23T06:24:22.338Z,100214.53
2022-12-23T06:26:53.375Z,100231.06
2022-12-23T06:29:23.109Z,100231.16
2022-12-23T06:31:49.571Z,100229.41
2022-12-23T06:34:16.019Z,100222.47
2022-12-23T06:36:42.382Z,100226.00
2022-12-23T06:39:10.287Z,100231.25
2022-12-23T06:41:36.745Z,100227.81
2022-12-23T06:44:03.201Z,100232.22
2022-12-23T06:46:29.979Z,100231.47
2022-12-23T06:48:56.397Z,100228.91
2022-12-23T06:51:22.861Z,100236.75
2022-12-23T06:53:49.246Z,100231.53
2022-12-23T06:56:15.725Z,100240.25
2022-12-23T06:58:42.077Z,100247.16
2022-12-23T07:01:10.095Z,100250.63
2022-12-23T07:03:37.136Z,100240.16
2022-12-23T07:06:03.939Z,100247.06
2022-12-23T07:08:30.311Z,100246.16
2022-12-23T07:11:01.125Z,100249.63
2022-12-23T07:13:27.709Z,100248.66
2022-12-23T07:15:54.158Z,100252.16
2022-12-23T07:18:22.134Z,100254.75
2022-12-23T07:20:49.313Z,100274.72
2022-12-23T07:23:15.701Z,100277.31
2022-12-23T07:25:42.515Z,100275.56
2022-12-23T07:28:08.946Z,100273.00
2022-12-23T07:30:35.647Z,100270.41
2022-12-23T07:33:02.232Z,100273.88
2022-12-23T07:35:28.705Z,100276.41
2022-12-23T07:37:56.056Z,100277.28
2022-12-23T07:40:23.344Z,100280.72
2022-12-23T07:42:50.708Z,100291.25
2022-12-23T07:45:17.147Z,100311.31
2022-12-23T07:47:43.634Z,100317.44
2022-12-23T07:50:10.215Z,100316.53
2022-12-23T07:52:36.722Z,100308.66
2022-12-23T07:55:03.602Z,100312.09
2022-12-23T07:57:30.211Z,100321.59
2022-12-23T07:59:57.185Z,100313.66
2022-12-23T08:02:25.324Z,100307.59
2022-12-23T08:04:52.098Z,100305.81
2022-12-23T08:07:18.751Z,100314.47
2022-12-23T08:09:45.152Z,100311.00
2022-12-23T08:12:12.561Z,100310.16
2022-12-23T08:14:39.013Z,100310.94
2022-12-23T08:17:05.577Z,100318.72
2022-12-23T08:19:33.880Z,100320.38
2022-12-23T08:22:00.322Z,100322.91
2022-12-23T08:24:29.120Z,100319.41
2022-12-23T08:26:55.679Z,100327.19
2022-12-23T08:29:22.733Z,100326.28
2022-12-23T08:31:50.359Z,100339.31
2022-12-23T08:34:17.356Z,100344.53
2022-12-23T08:36:43.839Z,100354.09
2022-12-23T08:39:11.467Z,100341.06
2022-12-23T08:41:44.475Z,100344.59
2022-12-23T08:44:11.288Z,100345.47
2022-12-23T08:46:38.535Z,100342.03
2022-12-23T08:49:05.788Z,100343.72
2022-12-23T08:51:32.635Z,100348.03
2022-12-23T08:54:01.458Z,100348.81
2022-12-23T08:56:39.111Z,100349.63
2022-12-23T08:59:06.154Z,100361.78
2022-12-23T09:01:34.492Z,100364.44
2022-12-23T09:04:05.608Z,100376.56
2022-12-23T09:06:38.107Z,100380.06
2022-12-23T09:09:06.115Z,100381.94
2022-12-23T09:11:33.555Z,100386.47
2022-12-23T09:14:02.225Z,100375.13
2022-12-23T09:16:29.600Z,100388.25
2022-12-23T09:18:56.486Z,100378.84
2022-12-23T09:21:24.354Z,100377.97
2022-12-23T09:23:51.430Z,100379.69
2022-12-23T09:26:28.115Z,100379.63
2022-12-23T09:28:55.714Z,100380.28
2022-12-23T09:31:23.159Z,100379.38
2022-12-23T09:33:52.192Z,100374.22
2022-12-23T09:36:19.385Z,100378.78
2022-12-23T09:38:49.686Z,100378.06
2022-12-23T09:41:35.135Z,100382.84
2022-12-23T09:44:21.449Z,100381.28
2022-12-23T09:46:53.522Z,100386.69
2022-12-23T09:49:22.202Z,100399.03
2022-12-23T09:51:52.426Z,100405.31
2022-12-23T09:54:28.843Z,100396.56
2022-12-23T09:57:02.929Z,100394.78
2022-12-23T10:00:07.226Z,100387.69
2022-12-23T10:02:50.848Z,100390.22
2022-12-23T10:05:20.976Z,100380.41
2022-12-23T10:07:58.179Z,100384.44
2022-12-23T10:10:48.353Z,100375.53
2022-12-23T10:13:26.978Z,100369.22
2022-12-23T10:15:55.149Z,100369.09
2022-12-23T10:18:47.788Z,100375.09
2022-12-23T10:21:35.021Z,100378.78
2022-12-23T10:24:10.081Z,100380.47
2022-12-23T10:26:48.691Z,100387.47
2022-12-23T10:29:27.043Z,100378.84
2022-12-23T10:32:14.704Z,100382.47
2022-12-23T10:35:16.080Z,100382.53
2022-12-23T10:37:51.514Z,100382.38
2022-12-23T10:40:32.793Z,100385.81
2022-12-23T10:43:38.262Z,100390.88
2022-12-23T10:46:43.739Z,100377.72
2022-12-23T10:49:21.232Z,100380.28
2022-12-23T10:51:58.526Z,100373.25
2022-12-23T10:54:36.389Z,100382.69
2022-12-23T10:57:05.395Z,100375.63
2022-12-23T10:59:35.094Z,100390.25
2022-12-23T11:02:24.858Z,100380.72
2022-12-23T11:04:51.615Z,100374.84
2022-12-23T11:07:45.344Z,100380.94
2022-12-23T11:10:22.023Z,100388.75
2022-12-23T11:12:52.482Z,100384.38
2022-12-23T11:15:35.373Z,100395.56
2022-12-23T11:18:04.303Z,100394.69
2022-12-23T11:20:31.871Z,100393.78
2022-12-23T11:23:04.309Z,100389.47
2022-12-23T11:25:42.473Z,100394.69
2022-12-23T11:28:11.665Z,100400.69
2022-12-23T11:30:55.621Z,100390.31
2022-12-23T11:33:30.113Z,100393.06
2022-12-23T11:36:23.742Z,100384.28
2022-12-23T11:39:19.249Z,100377.22
2022-12-23T11:41:49.627Z,100373.84
2022-12-23T11:44:37.811Z,100368.59
2022-12-23T11:47:22.850Z,100372.25
2022-12-23T11:49:55.234Z,100371.41
2022-12-23T11:52:30.400Z,100371.59
2022-12-23T11:54:59.914Z,100369.44
2022-12-23T11:57:42.877Z,100361.59
2022-12-23T12:00:21.695Z,100368.31
2022-12-23T12:03:03.281Z,100370.69
2022-12-23T12:05:46.715Z,100368.84
2022-12-23T12:08:21.265Z,100371.66
2022-12-23T12:10:52.022Z,100368.16
2022-12-23T12:13:28.454Z,100366.19
2022-12-23T12:16:13.659Z,100369.66
2022-12-23T12:18:43.550Z,100361.56
2022-12-23T12:21:24.009Z,100359.66
2022-12-23T12:24:14.717Z,100345.75
2022-12-23T12:26:41.583Z,100343.94
2022-12-23T12:29:22.489Z,100337.72
2022-12-23T12:31:53.297Z,100333.28
2022-12-23T12:34:38.645Z,100330.53
2022-12-23T12:37:21.775Z,100319.13
2022-12-23T12:40:03.886Z,100309.47
2022-12-23T12:42:37.887Z,100316.31
2022-12-23T12:45:20.480Z,100317.13
2022-12-23T12:48:17.849Z,100309.19
2022-12-23T12:51:11.279Z,100303.88
2022-12-23T12:54:05.198Z,100312.56
2022-12-23T12:56:41.344Z,100318.75
2022-12-23T12:59:16.900Z,100316.13
2022-12-23T13:02:15.502Z,100315.31
2022-12-23T13:05:19.993Z,100324.00
2022-12-23T13:08:21.994Z,100315.38
2022-12-23T13:11:06.086Z,100311.91
2022-12-23T13:14:08.227Z,100315.38
2022-12-23T13:17:06.179Z,100323.22
2022-12-23T13:19:47.404Z,100332.88
2022-12-23T13:22:22.082Z,100326.94
2022-12-23T13:25:01.983Z,100328.69
2022-12-23T13:27:49.714Z,100326.09
2022-12-23T13:30:19.095Z,100323.47
2022-12-23T13:32:55.950Z,100313.06
2022-12-23T13:35:39.346Z,100308.69
2022-12-23T13:38:25.382Z,100314.69
2022-12-23T13:41:27.059Z,100307.78
2022-12-23T13:43:57.167Z,100308.69
2022-12-23T13:46:49.107Z,100312.19
2022-12-23T13:49:28.036Z,100315.69
2022-12-23T13:52:15.842Z,100315.72
2022-12-23T13:54:58.977Z,100312.38
2022-12-23T13:57:28.512Z,100322.03
2022-12-23T14:00:05.858Z,100321.38
2022-12-23T14:02:41.723Z,100318.84
2022-12-23T14:05:40.905Z,100321.38
2022-12-23T14:08:19.691Z,100318.78
2022-12-23T14:10:57.330Z,100317.03
2022-12-23T14:13:45.912Z,100311.78
2022-12-23T14:16:24.243Z,100306.56
2022-12-23T14:18:53.376Z,100304.84
2022-12-23T14:21:43.222Z,100303.22
2022-12-23T14:24:34.441Z,100303.28
2022-12-23T14:27:26.064Z,100300.53
2022-12-23T14:30:21.884Z,100290.03
2022-12-23T14:32:59.487Z,100292.56
2022-12-23T14:35:27.949Z,100279.53
2022-12-23T14:38:16.749Z,100289.97
2022-12-23T14:40:43.369Z,100270.81
2022-12-23T14:43:25.447Z,100279.47
2022-12-23T14:45:57.122Z,100270.84
2022-12-23T14:48:37.147Z,100272.66
2022-12-23T14:51:09.639Z,100278.81
2022-12-23T14:53:57.433Z,100277.16
2022-12-23T14:56:39.104Z,100287.69
2022-12-23T14:59:15.129Z,100285.16
2022-12-23T15:01:52.682Z,100284.34
2022-12-23T15:04:45.511Z,100286.09
2022-12-23T15:07:19.136Z,100294.81
2022-12-23T15:10:00.296Z,100288.75
2022-12-23T15:12:32.751Z,100292.28
2022-12-23T15:15:05.517Z,100298.34
2022-12-23T15:17:35.831Z,100295.78
2022-12-23T15:20:04.665Z,100296.63
2022-12-23T15:22:32.763Z,100302.69
2022-12-23T15:24:59.265Z,100298.34
2022-12-23T15:27:29.759Z,100296.59
2022-12-23T15:29:57.575Z,100284.41
2022-12-23T15:32:25.691Z,100287.91
2022-12-23T15:34:56.383Z,100290.59
2022-12-23T15:37:29.337Z,100284.50
2022-12-23T15:40:06.124Z,100295.94
2022-12-23T15:42:38.511Z,100287.28
2022-12-23T15:45:30.279Z,100287.31
2022-12-23T15:47:57.708Z,100288.19
2022-12-23T15:50:24.435Z,100281.28
2022-12-23T15:52:54.354Z,100287.38
2022-12-23T15:55:25.561Z,100288.34
2022-12-23T15:57:53.169Z,100291.75
2022-12-23T16:00:34.784Z,100289.94
2022-12-23T16:03:03.355Z,100272.53
2022-12-23T16:05:38.262Z,100277.69
2022-12-23T16:08:11.026Z,100269.91
2022-12-23T16:10:38.396Z,100264.66
2022-12-23T16:13:04.898Z,100262.09
2022-12-23T16:15:32.713Z,100268.16
2022-12-23T16:18:25.285Z,100264.72
2022-12-23T16:20:55.294Z,100260.34
2022-12-23T16:23:22.436Z,100268.19
2022-12-23T16:25:52.814Z,100257.75
2022-12-23T16:28:24.273Z,100255.97
2022-12-23T16:30:57.299Z,100250.78
2022-12-23T16:33:36.603Z,100242.13
2022-12-23T16:36:24.753Z,100238.69
2022-12-23T16:39:02.392Z,100237.91
2022-12-23T16:41:28.858Z,100233.59
2022-12-23T16:43:55.239Z,100227.53
2022-12-23T16:46:23.276Z,100225.78
2022-12-23T16:49:01.863Z,100224.88
2022-12-23T16:51:33.455Z,100224.00
2022-12-23T16:54:00.634Z,100222.25
2022-12-23T16:56:36.391Z,100210.97
2022-12-23T16:59:03.935Z,100214.50
2022-12-23T17:01:33.201Z,100212.72
2022-12-23T17:03:59.688Z,100214.53
2022-12-23T17:06:26.607Z,100210.19
2022-12-23T17:08:53.451Z,100209.28
2022-12-23T17:11:34.155Z,100202.34
2022-12-23T17:14:05.664Z,100198.00
2022-12-23T17:16:34.482Z,100209.28
2022-12-23T17:19:01.236Z,100208.44
2022-12-23T17:21:33.794Z,100208.47
2022-12-23T17:24:26.898Z,100213.69
2022-12-23T17:26:54.239Z,100214.53
2022-12-23T17:29:20.762Z,100209.31
2022-12-23T17:31:50.088Z,100211.94
2022-12-23T17:34:19.249Z,100211.09
2022-12-23T17:36:49.910Z,100212.84
2022-12-23T17:39:17.077Z,100213.75
2022-12-23T17:41:43.605Z,100215.50
2022-12-23T17:44:13.893Z,100219.94
2022-12-23T17:46:40.346Z,100212.16
2022-12-23T17:49:06.740Z,100218.22
2022-12-23T17:51:33.530Z,100209.56
2022-12-23T17:54:00.347Z,100219.13
2022-12-23T17:56:28.510Z,100218.28
2022-12-23T17:58:55.199Z,100212.16
2022-12-23T18:01:24.392Z,100215.66
2022-12-23T18:03:51.156Z,100227.81
2022-12-23T18:06:20.339Z,100224.34
2022-12-23T18:08:47.197Z,100226.09
2022-12-23T18:11:34.611Z,100223.50
2022-12-23T18:14:02.332Z,100220.03
2022-12-23T18:16:28.952Z,100223.50
2022-12-23T18:18:56.409Z,100218.34
2022-12-23T18:21:25.791Z,100221.84
2022-12-23T18:23:54.686Z,100221.81
2022-12-23T18:26:21.422Z,100220.94
2022-12-23T18:28:47.845Z,100220.94
2022-12-23T18:31:17.295Z,100225.31
2022-12-23T18:33:43.936Z,100231.38
2022-12-23T18:36:36.548Z,100228.75
2022-12-23T18:39:03.051Z,100224.47
2022-12-23T18:41:29.502Z,100222.69
2022-12-23T18:43:56.454Z,100217.50
2022-12-23T18:46:23.079Z,100221.81
2022-12-23T18:48:49.516Z,100220.09
2022-12-23T18:51:18.584Z,100221.00
2022-12-23T18:53:45.923Z,100224.47
2022-12-23T18:56:14.206Z,100219.25
2022-12-23T18:58:40.875Z,100224.47
2022-12-23T19:01:14.609Z,100218.38
2022-12-23T19:03:42.029Z,100215.78
2022-12-23T19:06:11.303Z,100217.50
2022-12-23T19:08:38.071Z,100211.41
2022-12-23T19:11:18.884Z,100217.53
2022-12-23T19:13:46.485Z,100220.16
2022-12-23T19:16:15.706Z,100215.78
2022-12-23T19:18:42.446Z,100219.25
2022-12-23T19:21:09.360Z,100221.00
2022-12-23T19:23:36.121Z,100216.63
2022-12-23T19:26:04.273Z,100220.16
2022-12-23T19:28:30.766Z,100221.91
2022-12-23T19:30:58.124Z,100226.22
2022-12-23T19:33:24.697Z,100220.09
2022-12-23T19:35:51.057Z,100221.00
2022-12-23T19:38:18.239Z,100220.19
2022-12-23T19:40:44.692Z,100221.91
2022-12-23T19:43:11.075Z,100214.97
2022-12-23T19:45:37.614Z,100223.66
2022-12-23T19:48:04.185Z,100221.91
2022-12-23T19:50:30.692Z,100228.75
2022-12-23T19:52:57.341Z,100221.84
2022-12-23T19:55:24.018Z,100229.72
2022-12-23T19:57:50.441Z,100223.66
2022-12-23T20:00:16.932Z,100229.75
2022-12-23T20:02:43.327Z,100228.06
2022-12-23T20:05:10.107Z,100224.59
2022-12-23T20:07:37.108Z,100227.22
2022-12-23T20:10:04.952Z,100228.09
2022-12-23T20:12:31.350Z,100228.94
2022-12-23T20:14:57.893Z,100238.50
2022-12-23T20:17:24.273Z,100230.69
2022-12-23T20:19:50.753Z,100242.88
2022-12-23T20:22:17.264Z,100235.03
2022-12-23T20:24:43.703Z,100241.94
2022-12-23T20:27:12.115Z,100240.25
2022-12-23T20:29:39.153Z,100232.41
2022-12-23T20:32:05.784Z,100241.09
2022-12-23T20:34:39.104Z,100240.25
2022-12-23T20:37:06.629Z,100240.25
2022-12-23T20:39:33.084Z,100239.34
2022-12-23T20:41:59.519Z,100245.53
2022-12-23T20:44:34.895Z,100245.53
2022-12-23T20:47:02.882Z,100237.75
2022-12-23T20:49:29.474Z,100240.41
2022-12-23T20:51:55.897Z,100237.81
2022-12-23T20:54:27.859Z,100238.69
2022-12-23T20:56:58.815Z,100238.69
2022-12-23T20:59:25.245Z,100231.75
2022-12-23T21:01:52.167Z,100234.38
2022-12-23T21:04:18.798Z,100230.94
2022-12-23T21:06:45.581Z,100233.59
2022-12-23T21:09:14.567Z,100238.00
2022-12-23T21:11:43.485Z,100231.09
2022-12-23T21:14:10.313Z,100242.41
2022-12-23T21:16:38.438Z,100234.63
2022-12-23T21:19:06.651Z,100233.75
2022-12-23T21:21:33.074Z,100235.47
2022-12-23T21:24:02.202Z,100243.28
2022-12-23T21:26:30.671Z,100244.97
2022-12-23T21:29:00.819Z,100244.97
2022-12-23T21:31:30.072Z,100244.97
2022-12-23T21:33:57.559Z,100246.78
2022-12-23T21:36:26.773Z,100245.03
2022-12-23T21:38:53.711Z,100248.50
2022-12-23T21:41:22.562Z,100245.09
2022-12-23T21:43:50.270Z,100246.78
2022-12-23T21:46:19.355Z,100239.88
2022-12-23T21:48:47.201Z,100234.63
2022-12-23T21:51:20.255Z,100241.59
2022-12-23T21:53:50.145Z,100240.72
2022-12-23T21:56:18.963Z,100250.28
2022-12-23T21:58:45.886Z,100256.38
2022-12-23T22:01:16.452Z,100259.81
2022-12-23T22:03:46.551Z,100253.72
2022-12-23T22:06:19.151Z,100264.13
2022-12-23T22:08:45.948Z,100263.22
2022-12-23T22:11:15.620Z,100261.41
2022-12-23T22:13:42.757Z,100260.56
2022-12-23T22:16:12.034Z,100256.19
2022-12-23T22:18:39.320Z,100261.38
2022-12-23T22:21:07.607Z,100259.59
2022-12-23T22:23:34.069Z,100264.78
2022-12-23T22:26:00.899Z,100260.47
2022-12-23T22:28:27.399Z,100268.25
2022-12-23T22:30:53.901Z,100263.06
2022-12-23T22:33:21.135Z,100264.81
2022-12-23T22:35:55.634Z,100264.91
2022-12-23T22:38:22.129Z,100265.88
2022-12-23T22:40:49.584Z,100268.47
2022-12-23T22:43:16.254Z,100270.25
2022-12-23T22:45:42.763Z,100270.25
2022-12-23T22:48:09.411Z,100276.41
2022-12-23T22:50:36.038Z,100279.00
2022-12-23T22:53:02.530Z,100281.59
2022-12-23T22:55:28.940Z,100279.06
2022-12-23T22:57:55.463Z,100277.34
2022-12-23T23:00:21.927Z,100269.56
2022-12-23T23:02:48.334Z,100268.69
2022-12-23T23:05:14.742Z,100275.66
2022-12-23T23:07:41.210Z,100277.41
2022-12-23T23:10:08.298Z,100281.72
2022-12-23T23:12:34.793Z,100280.88
2022-12-23T23:15:01.273Z,100282.66
2022-12-23T23:17:28.909Z,100284.47
2022-12-23T23:19:55.616Z,100283.66
2022-12-23T23:22:23.419Z,100283.66
2022-12-23T23:24:49.930Z,100285.41
2022-12-23T23:27:16.411Z,100280.19
2022-12-23T23:29:43.163Z,100281.91
2022-12-23T23:32:10.360Z,100275.84
2022-12-23T23:34:37.105Z,100278.44
2022-12-23T23:37:05.030Z,100280.19
2022-12-23T23:39:31.494Z,100287.16
2022-12-23T23:41:58.410Z,100283.72
2022-12-23T23:44:24.916Z,100291.53
2022-12-23T23:46:51.297Z,100288.97
2022-12-23T23:49:21.539Z,100286.41
2022-12-23T23:51:47.939Z,100289.00
2022-12-23T23:54:14.355Z,100287.25
2022-12-23T23:56:40.750Z,100276.88
2022-12-23T23:59:08.913Z,100289.06
